createdAt,value
2017-11-20T00:00:47.269Z,7.30
2017-11-20T00:03:15.344Z,8.40
2017-11-20T00:05:43.431Z,7.18
2017-11-20T00:08:12.272Z,7.43
2017-11-20T00:10:40.356Z,8.15
2017-11-20T00:13:08.442Z,7.40
2017-11-20T00:15:36.520Z,8.00
2017-11-20T00:18:04.598Z,8.02
2017-11-20T00:20:33.468Z,7.55
2017-11-20T00:23:01.540Z,7.85
2017-11-20T00:25:29.616Z,8.13
2017-11-20T00:27:57.700Z,6.65
2017-11-20T00:30:26.542Z,7.80
2017-11-20T00:32:54.631Z,7.80
2017-11-20T00:35:22.710Z,7.72
2017-11-20T00:37:50.807Z,7.55
2017-11-20T00:40:19.660Z,7.97
2017-11-20T00:42:47.742Z,8.10
2017-11-20T00:45:15.817Z,7.25
2017-11-20T00:47:43.901Z,7.43
2017-11-20T00:50:12.753Z,7.70
2017-11-20T00:52:40.840Z,7.32
2017-11-20T00:55:08.919Z,7.62
2017-11-20T00:57:37.765Z,7.90
2017-11-20T01:00:05.836Z,7.50
2017-11-20T01:02:33.920Z,6.70
2017-11-20T01:05:01.999Z,7.65
2017-11-20T01:07:30.083Z,7.57
2017-11-20T01:09:58.160Z,7.72
2017-11-20T01:12:27.028Z,7.78
2017-11-20T01:14:55.109Z,8.60
2017-11-20T01:17:23.185Z,7.62
2017-11-20T01:19:52.036Z,8.10
2017-11-20T01:22:20.116Z,8.10
2017-11-20T01:24:48.200Z,8.05
2017-11-20T01:27:16.280Z,8.88
2017-11-20T01:29:44.370Z,8.00
2017-11-20T01:32:13.208Z,8.15
2017-11-20T01:34:41.293Z,8.20
2017-11-20T01:37:09.366Z,7.62
2017-11-20T01:39:37.462Z,7.72
2017-11-20T01:42:06.310Z,7.68
2017-11-20T01:44:34.398Z,7.90
2017-11-20T01:47:02.485Z,8.38
2017-11-20T01:49:31.335Z,7.75
2017-11-20T01:51:59.416Z,9.10
2017-11-20T01:54:27.500Z,7.80
2017-11-20T01:56:55.585Z,7.62
2017-11-20T01:59:23.667Z,7.57
2017-11-20T02:01:51.755Z,8.38
2017-11-20T02:04:19.831Z,8.00
2017-11-20T02:06:47.916Z,7.90
2017-11-20T02:09:16.005Z,6.62
2017-11-20T02:11:44.088Z,8.10
2017-11-20T02:14:12.168Z,7.12
2017-11-20T02:16:40.255Z,7.90
2017-11-20T02:19:09.109Z,8.35
2017-11-20T02:21:37.192Z,9.70
2017-11-20T02:24:05.280Z,7.72
2017-11-20T02:26:34.126Z,9.35
2017-11-20T02:29:02.266Z,9.30
2017-11-20T02:31:30.352Z,9.07
2017-11-20T02:33:58.443Z,9.40
2017-11-20T02:36:26.528Z,9.38
2017-11-20T02:38:54.612Z,9.07
2017-11-20T02:41:23.464Z,9.63
2017-11-20T02:43:51.544Z,9.27
2017-11-20T02:46:19.640Z,10.80
2017-11-20T02:48:48.498Z,10.35
2017-11-20T02:51:16.606Z,10.57
2017-11-20T02:53:45.452Z,10.45
2017-11-20T02:56:13.545Z,11.20
2017-11-20T02:58:41.623Z,10.10
2017-11-20T03:01:09.721Z,10.20
2017-11-20T03:03:37.799Z,11.70
2017-11-20T03:06:05.897Z,11.55
2017-11-20T03:08:33.968Z,11.45
2017-11-20T03:11:02.063Z,10.40
2017-11-20T03:13:30.146Z,10.75
2017-11-20T03:15:58.231Z,11.55
2017-11-20T03:18:27.080Z,11.05
2017-11-20T03:20:55.178Z,11.70
2017-11-20T03:23:23.256Z,11.40
2017-11-20T03:25:52.236Z,12.45
2017-11-20T03:28:20.325Z,10.88
2017-11-20T03:30:49.173Z,11.25
2017-11-20T03:33:17.273Z,11.25
2017-11-20T03:35:45.355Z,11.25
2017-11-20T03:38:13.453Z,11.02
2017-11-20T03:40:41.549Z,11.38
2017-11-20T03:43:09.644Z,11.45
2017-11-20T03:45:37.820Z,11.73
2017-11-20T03:48:07.467Z,11.25
2017-11-20T03:50:35.597Z,10.60
2017-11-20T03:53:05.192Z,10.18
2017-11-20T03:55:33.282Z,10.40
2017-11-20T03:58:02.152Z,10.65
2017-11-20T04:00:30.228Z,10.15
2017-11-20T04:02:58.329Z,11.20
2017-11-20T04:05:27.188Z,10.20
2017-11-20T04:07:55.376Z,9.80
2017-11-20T04:10:23.469Z,11.25
2017-11-20T04:12:51.553Z,9.93
2017-11-20T04:15:19.653Z,10.80
2017-11-20T04:17:47.741Z,10.18
2017-11-20T04:20:15.834Z,10.35
2017-11-20T04:22:44.676Z,10.02
2017-11-20T04:25:12.768Z,10.00
2017-11-20T04:27:40.846Z,10.43
2017-11-20T04:30:08.960Z,10.52
2017-11-20T04:32:37.048Z,10.23
2017-11-20T04:35:05.133Z,8.90
2017-11-20T04:37:33.196Z,9.50
2017-11-20T04:40:01.295Z,10.27
2017-11-20T04:42:29.376Z,10.75
2017-11-20T04:44:58.226Z,10.88
2017-11-20T04:47:26.320Z,10.10
2017-11-20T04:49:54.404Z,10.43
2017-11-20T04:52:23.251Z,12.98
2017-11-20T04:54:51.327Z,9.85
2017-11-20T04:57:19.418Z,9.65
2017-11-20T04:59:47.505Z,9.98
2017-11-20T05:02:16.364Z,10.88
2017-11-20T05:04:44.449Z,10.23
2017-11-20T05:07:12.533Z,9.70
2017-11-20T05:09:41.387Z,10.75
2017-11-20T05:12:09.471Z,9.07
2017-11-20T05:14:37.548Z,10.60
2017-11-20T05:17:05.630Z,9.70
2017-11-20T05:19:34.472Z,9.45
2017-11-20T05:22:02.564Z,9.85
2017-11-20T05:24:30.635Z,9.20
2017-11-20T05:26:58.721Z,8.98
2017-11-20T05:29:26.800Z,9.90
2017-11-20T05:31:55.651Z,9.23
2017-11-20T05:34:23.727Z,9.40
2017-11-20T05:36:51.807Z,8.90
2017-11-20T05:39:19.883Z,9.30
2017-11-20T05:41:47.972Z,8.38
2017-11-20T05:44:16.829Z,8.75
2017-11-20T05:46:44.903Z,9.70
2017-11-20T05:49:12.988Z,9.25
2017-11-20T05:51:41.069Z,9.40
2017-11-20T05:54:09.149Z,8.68
2017-11-20T05:56:37.991Z,9.50
2017-11-20T05:59:06.089Z,8.70
2017-11-20T06:01:34.171Z,7.93
2017-11-20T06:04:02.248Z,8.90
2017-11-20T06:06:31.087Z,7.85
2017-11-20T06:08:59.188Z,8.10
2017-11-20T06:11:27.271Z,9.93
2017-11-20T06:13:56.123Z,8.93
2017-11-20T06:16:24.209Z,9.02
2017-11-20T06:18:52.282Z,9.23
2017-11-20T06:21:20.373Z,9.25
2017-11-20T06:23:48.459Z,9.60
2017-11-20T06:26:16.699Z,8.77
2017-11-20T06:28:46.292Z,9.93
2017-11-20T06:31:14.375Z,9.80
2017-11-20T06:33:42.456Z,8.00
2017-11-20T06:36:11.323Z,9.40
2017-11-20T06:38:39.392Z,9.05
2017-11-20T06:41:07.489Z,9.95
2017-11-20T06:43:36.338Z,9.13
2017-11-20T06:46:04.529Z,9.05
2017-11-20T06:48:34.268Z,9.60
2017-11-20T06:51:02.339Z,9.25
2017-11-20T06:53:30.429Z,9.15
2017-11-20T06:55:58.539Z,9.38
2017-11-20T06:58:26.627Z,11.60
2017-11-20T07:00:54.710Z,9.90
2017-11-20T07:03:23.562Z,9.73
2017-11-20T07:05:51.638Z,9.05
2017-11-20T07:08:19.759Z,11.40
2017-11-20T07:10:47.854Z,9.55
2017-11-20T07:13:15.939Z,10.40
2017-11-20T07:15:44.020Z,9.15
2017-11-20T07:18:12.100Z,9.02
2017-11-20T07:20:40.187Z,9.25
2017-11-20T07:23:09.044Z,10.35
2017-11-20T07:39:27.134Z,11.57
2017-11-20T07:41:55.274Z,11.77
2017-11-20T07:44:23.353Z,9.07
2017-11-20T07:46:51.601Z,9.13
2017-11-20T07:49:19.690Z,10.25
2017-11-20T07:51:47.833Z,9.57
2017-11-20T07:54:16.016Z,9.35
2017-11-20T07:56:44.101Z,10.00
2017-11-20T07:59:12.950Z,9.88
2017-11-20T08:01:41.044Z,9.32
2017-11-20T08:04:09.123Z,12.05
2017-11-20T08:06:37.968Z,9.45
2017-11-20T08:09:06.053Z,9.32
2017-11-20T08:11:34.124Z,10.30
2017-11-20T08:14:02.230Z,10.38
2017-11-20T08:16:31.080Z,9.35
2017-11-20T08:18:59.165Z,9.32
2017-11-20T08:21:27.247Z,9.95
2017-11-20T08:23:55.332Z,9.68
2017-11-20T08:26:24.179Z,9.73
2017-11-20T08:28:52.263Z,9.65
2017-11-20T08:31:20.357Z,10.80
2017-11-20T08:33:49.211Z,9.93
2017-11-20T08:36:17.296Z,10.20
2017-11-20T08:38:45.376Z,11.32
2017-11-20T08:41:13.452Z,9.82
2017-11-20T08:43:42.308Z,9.68
2017-11-20T08:46:10.400Z,10.60
2017-11-20T08:48:38.507Z,10.40
2017-11-20T08:51:06.592Z,11.27
2017-11-20T08:53:34.817Z,10.18
2017-11-20T08:56:02.908Z,10.02
2017-11-20T08:58:31.053Z,11.38
2017-11-20T09:00:59.158Z,11.12
2017-11-20T09:03:27.384Z,10.98
2017-11-20T09:05:55.490Z,10.80
2017-11-20T09:08:24.340Z,10.15
2017-11-20T09:10:52.433Z,10.85
2017-11-20T09:13:20.516Z,11.00
2017-11-20T09:15:49.375Z,9.88
2017-11-20T09:18:17.464Z,10.32
2017-11-20T09:20:45.553Z,10.88
2017-11-20T09:23:14.424Z,10.82
2017-11-20T09:25:42.503Z,9.73
2017-11-20T09:28:11.353Z,9.95
2017-11-20T09:30:39.436Z,11.20
2017-11-20T09:33:07.539Z,10.15
2017-11-20T09:35:36.395Z,8.97
2017-11-20T09:38:04.481Z,10.07
2017-11-20T09:40:32.587Z,9.90
2017-11-20T09:43:00.699Z,9.82
2017-11-20T09:45:28.813Z,10.52
2017-11-20T09:47:56.897Z,9.85
2017-11-20T09:50:24.997Z,10.55
2017-11-20T09:52:53.075Z,9.82
2017-11-20T09:55:21.171Z,10.25
2017-11-20T09:57:49.256Z,9.90
2017-11-20T10:00:18.137Z,10.55
2017-11-20T10:02:46.208Z,10.80
2017-11-20T10:05:14.388Z,8.88
2017-11-20T10:07:42.468Z,10.25
2017-11-20T10:10:10.723Z,12.87
2017-11-20T10:12:38.811Z,10.27
2017-11-20T10:15:07.654Z,10.63
2017-11-20T10:17:35.734Z,9.50
2017-11-20T10:20:03.832Z,10.57
2017-11-20T10:22:31.967Z,10.23
2017-11-20T10:25:00.055Z,8.50
2017-11-20T10:27:28.141Z,8.95
2017-11-20T10:29:57.013Z,9.30
2017-11-20T10:32:25.101Z,9.43
2017-11-20T10:34:53.953Z,9.00
2017-11-20T10:37:22.036Z,8.70
2017-11-20T10:39:50.133Z,9.55
2017-11-20T10:42:18.199Z,9.10
2017-11-20T10:44:46.276Z,9.20
2017-11-20T10:47:15.119Z,8.80
2017-11-20T10:49:43.195Z,7.90
2017-11-20T10:52:11.285Z,7.87
2017-11-20T10:54:39.352Z,8.00
2017-11-20T10:57:07.437Z,9.13
2017-11-20T10:59:35.519Z,8.07
2017-11-20T11:02:04.359Z,8.77
2017-11-20T11:04:32.444Z,7.82
2017-11-20T11:07:00.536Z,8.55
2017-11-20T11:09:29.388Z,8.52
2017-11-20T11:11:57.476Z,8.40
2017-11-20T11:14:25.556Z,8.93
2017-11-20T11:16:53.737Z,7.50
2017-11-20T11:19:22.589Z,8.50
2017-11-20T11:21:50.663Z,8.02
2017-11-20T11:24:18.845Z,7.85
2017-11-20T11:26:46.929Z,8.02
2017-11-20T11:29:15.105Z,9.17
2017-11-20T11:31:43.189Z,8.67
2017-11-20T11:34:11.276Z,7.70
2017-11-20T11:36:39.404Z,8.90
2017-11-20T11:39:07.487Z,7.20
2017-11-20T11:41:35.856Z,6.20
2017-11-20T11:44:03.956Z,6.67
2017-11-20T11:46:32.209Z,5.65
2017-11-20T11:49:00.351Z,6.05
2017-11-20T11:51:28.424Z,5.50
2017-11-20T11:53:56.520Z,5.20
2017-11-20T11:56:24.625Z,5.40
2017-11-20T11:58:52.709Z,5.37
2017-11-20T12:01:20.800Z,4.97
2017-11-20T12:03:48.981Z,4.30
2017-11-20T12:06:17.172Z,4.37
2017-11-20T12:08:45.246Z,4.68
2017-11-20T12:11:13.330Z,4.95
2017-11-20T12:13:41.417Z,6.07
2017-11-20T12:16:10.272Z,5.90
2017-11-20T12:18:38.562Z,5.57
2017-11-20T12:21:06.643Z,6.90
2017-11-20T12:23:34.723Z,5.78
2017-11-20T12:26:02.841Z,5.63
2017-11-20T12:28:31.034Z,5.70
2017-11-20T12:30:59.106Z,5.90
2017-11-20T12:33:27.966Z,5.90
2017-11-20T12:35:56.140Z,6.15
2017-11-20T12:38:24.336Z,5.60
2017-11-20T12:40:52.616Z,5.65
2017-11-20T12:43:20.699Z,6.50
2017-11-20T12:45:49.544Z,6.60
2017-11-20T12:48:17.628Z,7.50
2017-11-20T12:50:45.703Z,7.50
2017-11-20T12:53:13.789Z,6.30
2017-11-20T12:55:41.865Z,6.85
2017-11-20T12:58:09.951Z,7.00
2017-11-20T13:00:38.787Z,8.23
2017-11-20T13:03:06.881Z,7.82
2017-11-20T13:05:34.962Z,7.43
2017-11-20T13:08:03.825Z,7.80
2017-11-20T13:10:31.892Z,7.90
2017-11-20T13:13:00.002Z,9.30
2017-11-20T13:15:28.085Z,9.13
2017-11-20T13:17:56.164Z,8.88
2017-11-20T13:20:24.248Z,9.75
2017-11-20T13:22:52.332Z,8.88
2017-11-20T13:25:20.425Z,8.02
2017-11-20T13:27:48.506Z,9.23
2017-11-20T13:30:16.810Z,8.70
2017-11-20T13:32:44.892Z,10.07
2017-11-20T13:35:12.994Z,9.05
2017-11-20T13:37:41.080Z,8.18
2017-11-20T13:40:09.161Z,8.67
2017-11-20T13:42:37.240Z,9.73
2017-11-20T13:45:06.096Z,9.65
2017-11-20T13:47:34.180Z,8.60
2017-11-20T13:50:02.268Z,8.85
2017-11-20T13:52:31.115Z,8.77
2017-11-20T13:54:59.219Z,8.65
2017-11-20T13:57:27.296Z,9.27
2017-11-20T13:59:56.149Z,8.07
2017-11-20T14:02:24.243Z,9.07
2017-11-20T14:04:52.320Z,8.27
2017-11-20T14:07:20.408Z,8.63
2017-11-20T14:09:49.253Z,7.80
2017-11-20T14:12:17.333Z,8.25
2017-11-20T14:14:45.498Z,8.63
2017-11-20T14:17:13.581Z,7.47
2017-11-20T14:19:41.663Z,7.87
2017-11-20T14:22:10.649Z,8.85
2017-11-20T14:24:38.803Z,7.47
2017-11-20T14:27:06.884Z,8.90
2017-11-20T14:29:34.984Z,8.97
2017-11-20T14:32:03.825Z,8.33
2017-11-20T14:34:31.913Z,7.60
2017-11-20T14:37:00.006Z,7.47
2017-11-20T14:42:26.525Z,7.75
2017-11-20T14:44:54.608Z,11.70
2017-11-20T14:47:22.688Z,6.78
2017-11-20T14:49:50.768Z,7.13
2017-11-20T14:52:27.081Z,6.93
2017-11-20T14:54:55.120Z,9.00
2017-11-20T14:57:23.203Z,9.38
2017-11-20T14:59:51.276Z,7.80
2017-11-20T15:02:19.370Z,7.40
2017-11-20T15:04:47.439Z,7.10
2017-11-20T15:07:15.515Z,6.80
2017-11-20T15:09:43.592Z,7.40
2017-11-20T15:12:11.686Z,8.15
2017-11-20T15:14:40.527Z,7.00
2017-11-20T15:17:08.624Z,7.85
2017-11-20T15:19:36.705Z,6.82
2017-11-20T15:22:04.803Z,7.65
2017-11-20T15:24:33.641Z,7.57
2017-11-20T15:27:01.719Z,7.20
2017-11-20T15:29:29.915Z,8.25
2017-11-20T15:31:58.188Z,6.87
2017-11-20T15:34:27.081Z,7.80
2017-11-20T15:36:55.968Z,8.50
2017-11-20T15:39:24.821Z,10.48
2017-11-20T15:41:53.452Z,10.85
2017-11-20T15:44:22.307Z,9.48
2017-11-20T15:46:50.493Z,9.85
2017-11-20T15:49:20.089Z,14.87
2017-11-20T15:51:48.268Z,10.50
2017-11-20T15:54:16.360Z,10.60
2017-11-20T15:56:45.210Z,13.57
2017-11-20T15:59:13.302Z,10.75
2017-11-20T16:01:41.396Z,11.30
2017-11-20T16:04:10.266Z,12.55
2017-11-20T16:06:38.336Z,11.18
2017-11-20T16:09:07.188Z,11.05
2017-11-20T16:11:35.288Z,10.65
2017-11-20T16:14:03.377Z,10.15
2017-11-20T16:16:32.236Z,10.15
2017-11-20T16:19:00.310Z,10.80
2017-11-20T16:21:28.400Z,9.45
2017-11-20T16:23:57.252Z,9.98
2017-11-20T16:26:25.340Z,9.18
2017-11-20T16:28:53.427Z,8.75
2017-11-20T16:31:21.522Z,10.90
2017-11-20T16:33:49.596Z,9.55
2017-11-20T16:36:17.824Z,9.95
2017-11-20T16:38:45.908Z,9.50
2017-11-20T16:41:13.995Z,10.25
2017-11-20T16:43:42.840Z,9.25
2017-11-20T16:46:10.918Z,10.18
2017-11-20T16:48:39.200Z,13.82
2017-11-20T16:51:07.285Z,11.98
2017-11-20T16:53:36.135Z,10.18
2017-11-20T16:56:04.208Z,9.88
2017-11-20T16:58:44.071Z,9.80
2017-11-20T17:01:12.151Z,9.80
2017-11-20T17:03:40.244Z,9.85
2017-11-20T17:06:09.087Z,8.18
2017-11-20T17:08:37.181Z,9.32
2017-11-20T17:11:05.248Z,8.77
2017-11-20T17:17:37.726Z,8.65
2017-11-20T17:20:05.807Z,9.65
2017-11-20T17:22:33.909Z,9.25
2017-11-20T17:25:02.762Z,10.98
2017-11-20T17:27:30.852Z,10.95
2017-11-20T17:29:58.937Z,10.38
2017-11-20T17:32:27.780Z,9.50
2017-11-20T17:34:55.863Z,10.05
2017-11-20T17:37:23.955Z,11.25
2017-11-20T17:39:52.100Z,10.35
2017-11-20T17:42:20.291Z,9.90
2017-11-20T17:44:48.571Z,9.95
2017-11-20T17:47:17.632Z,9.77
2017-11-20T17:49:46.524Z,8.95
2017-11-20T17:52:14.612Z,10.18
2017-11-20T17:54:42.759Z,9.38
2017-11-20T17:57:10.834Z,9.20
2017-11-20T17:59:38.977Z,9.15
2017-11-20T18:02:07.057Z,9.50
2017-11-20T18:04:35.170Z,8.95
2017-11-20T18:07:03.241Z,9.55
2017-11-20T18:09:31.332Z,9.32
2017-11-20T18:12:00.171Z,9.98
2017-11-20T18:14:28.264Z,9.82
2017-11-20T18:16:56.347Z,9.80
2017-11-20T18:19:24.431Z,9.07
2017-11-20T18:21:53.288Z,9.75
2017-11-20T18:24:21.376Z,9.65
2017-11-20T18:26:49.468Z,9.75
2017-11-20T18:29:17.655Z,11.32
2017-11-20T18:31:45.809Z,9.80
2017-11-20T18:34:13.891Z,8.95
2017-11-20T18:36:41.995Z,9.30
2017-11-20T18:39:10.086Z,9.45
2017-11-20T18:41:38.197Z,8.82
2017-11-20T18:44:07.032Z,9.35
2017-11-20T18:46:35.124Z,10.75
2017-11-20T18:49:03.208Z,11.55
2017-11-20T18:51:32.059Z,9.90
2017-11-20T18:54:00.139Z,10.23
2017-11-20T18:56:28.238Z,10.82
2017-11-20T18:58:57.215Z,9.73
2017-11-20T19:01:36.931Z,9.52
2017-11-20T19:04:16.634Z,9.75
2017-11-20T19:06:56.462Z,9.30
2017-11-20T19:09:24.537Z,10.20
2017-11-20T19:11:52.628Z,10.18
2017-11-20T19:14:20.707Z,9.40
2017-11-20T19:16:48.801Z,9.98
2017-11-20T19:19:16.877Z,8.60
2017-11-20T19:21:44.964Z,9.63
2017-11-20T19:24:13.050Z,10.93
2017-11-20T19:26:41.903Z,13.23
2017-11-20T19:29:09.988Z,11.38
2017-11-20T19:31:38.076Z,11.38
2017-11-20T19:34:06.936Z,14.05
2017-11-20T19:36:35.022Z,17.90
2017-11-20T19:39:03.207Z,23.75
2017-11-20T19:41:31.480Z,16.12
2017-11-20T19:43:59.577Z,12.10
2017-11-20T19:46:27.839Z,12.73
2017-11-20T19:48:55.963Z,14.87
2017-11-20T19:51:24.665Z,10.30
2017-11-20T19:53:52.936Z,10.90
2017-11-20T19:56:21.419Z,9.48
2017-11-20T19:58:49.672Z,9.38
2017-11-20T20:01:17.870Z,13.18
2017-11-20T20:03:46.052Z,9.47
2017-11-20T20:06:14.192Z,10.00
2017-11-20T20:08:43.284Z,9.90
2017-11-20T20:11:11.979Z,8.97
2017-11-20T20:13:46.979Z,8.88
2017-11-20T20:16:20.248Z,10.33
2017-11-20T20:18:48.326Z,9.77
2017-11-20T20:21:16.648Z,9.20
2017-11-20T20:23:44.787Z,10.10
2017-11-20T20:26:13.016Z,9.88
2017-11-20T20:28:41.386Z,9.90
2017-11-20T20:31:09.490Z,9.47
2017-11-20T20:33:37.770Z,9.40
2017-11-20T20:36:06.649Z,9.85
2017-11-20T20:38:35.099Z,10.50
2017-11-20T20:41:03.269Z,10.23
2017-11-20T20:43:31.377Z,9.68
2017-11-20T20:45:59.501Z,10.20
2017-11-20T20:48:27.630Z,10.98
2017-11-20T20:50:55.753Z,11.25
2017-11-20T20:53:23.827Z,10.80
2017-11-20T20:55:51.964Z,11.45
2017-11-20T20:58:20.050Z,10.35
2017-11-20T21:00:48.228Z,11.12
2017-11-20T21:03:16.315Z,11.07
2017-11-20T21:05:46.827Z,11.85
2017-11-20T21:11:02.699Z,10.77
2017-11-20T21:13:30.866Z,10.68
2017-11-20T21:15:58.931Z,13.27
2017-11-20T21:18:27.023Z,11.52
2017-11-20T21:20:55.109Z,10.23
2017-11-20T21:23:23.193Z,13.55
2017-11-20T21:25:51.357Z,13.33
2017-11-20T21:28:20.245Z,12.55
2017-11-20T21:30:48.334Z,11.90
2017-11-20T21:33:16.430Z,13.35
2017-11-20T21:35:44.651Z,12.73
2017-11-20T21:38:12.746Z,11.85
2017-11-20T21:40:40.832Z,11.50
2017-11-20T21:43:08.961Z,11.85
2017-11-20T21:45:37.241Z,12.00
2017-11-20T21:48:05.417Z,12.18
2017-11-20T21:50:33.493Z,12.05
2017-11-20T21:53:01.764Z,12.17
2017-11-20T21:55:29.855Z,13.40
2017-11-20T21:57:58.697Z,12.47
2017-11-20T22:00:26.794Z,12.30
2017-11-20T22:02:55.089Z,12.05
2017-11-20T22:05:23.174Z,13.00
2017-11-20T22:07:51.264Z,11.38
2017-11-20T22:10:19.476Z,12.93
2017-11-20T22:13:00.097Z,13.23
2017-11-20T22:15:28.200Z,12.13
2017-11-20T22:17:56.284Z,12.13
2017-11-20T22:20:24.369Z,13.13
2017-11-20T22:22:53.215Z,13.17
2017-11-20T22:25:21.308Z,12.30
2017-11-20T22:27:49.395Z,10.03
2017-11-20T22:30:18.253Z,10.00
2017-11-20T22:32:46.443Z,11.10
2017-11-20T22:35:15.321Z,10.88
2017-11-20T22:37:44.912Z,10.20
2017-11-20T22:40:13.072Z,10.97
2017-11-20T22:42:41.159Z,11.00
2017-11-20T22:45:09.340Z,10.30
2017-11-20T22:47:37.524Z,10.70
2017-11-20T22:50:05.609Z,12.07
2017-11-20T22:52:33.692Z,10.33
2017-11-20T22:55:02.545Z,9.43
2017-11-20T22:57:30.636Z,11.37
2017-11-20T22:59:58.707Z,9.10
2017-11-20T23:02:27.563Z,10.40
2017-11-20T23:04:55.644Z,11.10
2017-11-20T23:07:23.728Z,11.43
2017-11-20T23:09:51.803Z,10.40
2017-11-20T23:12:19.889Z,10.23
2017-11-20T23:14:48.734Z,11.10
2017-11-20T23:17:17.833Z,11.00
2017-11-20T23:19:45.904Z,10.97
2017-11-20T23:22:14.000Z,10.07
2017-11-20T23:24:42.856Z,10.03
2017-11-20T23:27:10.936Z,9.37
2017-11-20T23:29:39.097Z,10.63
2017-11-20T23:32:07.183Z,10.03
2017-11-20T23:34:35.368Z,9.30
2017-11-20T23:37:03.427Z,8.77
2017-11-20T23:39:31.508Z,8.10
2017-11-20T23:42:00.353Z,8.67
2017-11-20T23:44:28.474Z,8.73
2017-11-20T23:46:56.545Z,6.77
2017-11-20T23:49:25.694Z,7.23
2017-11-20T23:51:53.735Z,7.37
2017-11-20T23:54:33.495Z,6.80
2017-11-20T23:57:01.583Z,7.23
2017-11-20T23:59:29.664Z,6.43
